Time;durP1;ratioP1;P1;durP2;ratioP2;P2;SDS_P1;SDS_P2;PMS_P1;PMS_P2;Temp;Humidity;BMP_temperature;BMP_pressure;BME280_temperature;BME280_humidity;BME280_pressure;Samples;Min_cycle;Max_cycle;Signal;HPM_P1;HPM_P2
2022/10/14 00:01:35;;;;;;;;;;;;;;;20.59;48.71;101184.75;5135074;27;19927;-38
2022/10/14 00:04:01;;;;;;;;;;;;;;;20.59;48.61;101189.44;5133416;27;20023;-37
2022/10/14 00:06:28;;;;;;;;;;;;;;;20.59;48.67;101184.75;5134089;27;20268;-37
2022/10/14 00:08:53;;;;;;;;;;;;;;;20.59;48.75;101186.69;5116319;27;20306;-37
2022/10/14 00:11:20;;;;;;;;;;;;;;;20.59;48.60;101172.84;5120217;27;20358;-38
2022/10/14 00:13:45;;;;;;;;;;;;;;;20.59;48.64;101175.63;5113334;27;20034;-37
2022/10/14 00:16:19;;;;;;;;;;;;;;;20.59;48.65;101172.84;5114289;28;19937;-37
2022/10/14 00:18:45;;;;;;;;;;;;;;;20.60;48.58;101171.75;5131489;27;19992;-37
2022/10/14 00:21:10;;;;;;;;;;;;;;;20.59;48.78;101172.84;5129777;27;20632;-37
2022/10/14 00:23:36;;;;;;;;;;;;;;;20.60;48.74;101177.28;5116427;27;19934;-37
2022/10/14 00:26:01;;;;;;;;;;;;;;;20.59;48.67;101170.91;5136481;27;19935;-38
2022/10/14 00:28:27;;;;;;;;;;;;;;;20.59;48.81;101175.63;5115802;27;20307;-38
2022/10/14 00:30:54;;;;;;;;;;;;;;;20.60;48.88;101169.00;5142786;27;19931;-38
2022/10/14 00:33:19;;;;;;;;;;;;;;;20.59;48.56;101172.84;5136302;27;20018;-37
2022/10/14 00:35:52;;;;;;;;;;;;;;;20.59;48.60;101176.44;5120718;27;19942;-37
2022/10/14 00:38:17;;;;;;;;;;;;;;;20.59;48.79;101170.91;5142261;27;20498;-37
2022/10/14 00:40:43;;;;;;;;;;;;;;;20.59;48.60;101170.91;5137961;27;19932;-37
2022/10/14 00:43:09;;;;;;;;;;;;;;;20.58;48.78;101165.66;5137042;27;19923;-37
2022/10/14 00:45:34;;;;;;;;;;;;;;;20.59;48.71;101172.84;5139453;27;20083;-38
2022/10/14 00:48:00;;;;;;;;;;;;;;;20.58;48.90;101171.19;5133914;27;19924;-38
2022/10/14 00:50:26;;;;;;;;;;;;;;;20.57;48.82;101170.38;5135144;27;19923;-37
2022/10/14 00:52:51;;;;;;;;;;;;;;;20.59;48.91;101172.84;5140801;27;20379;-37
2022/10/14 00:55:17;;;;;;;;;;;;;;;20.59;48.79;101164.53;5135352;27;19927;-37
2022/10/14 00:57:43;;;;;;;;;;;;;;;20.60;48.86;101169.00;5122492;27;19927;-37
2022/10/14 01:00:10;;;;;;;;;;;;;;;20.57;48.70;101162.06;5117619;28;19934;-37
2022/10/14 01:02:35;;;;;;;;;;;;;;;20.59;48.81;101168.13;5116428;27;19939;-38
2022/10/14 01:05:01;;;;;;;;;;;;;;;20.59;48.74;101173.66;5124548;27;19923;-37
2022/10/14 01:07:46;;;;;;;;;;;;;;;20.59;48.78;101172.84;5116269;27;19931;-37
2022/10/14 01:10:23;;;;;;;;;;;;;;;20.59;48.74;101161.78;5117990;27;20505;-37
2022/10/14 01:12:52;;;;;;;;;;;;;;;20.58;48.64;101158.19;5118868;27;20026;-37
2022/10/14 01:15:28;;;;;;;;;;;;;;;20.59;48.63;101159.84;5139670;27;19930;-37
2022/10/14 01:17:56;;;;;;;;;;;;;;;20.58;48.52;101155.41;5115662;27;20006;-37
2022/10/14 01:20:28;;;;;;;;;;;;;;;20.59;48.62;101150.72;5116362;27;19971;-38
2022/10/14 01:23:03;;;;;;;;;;;;;;;20.58;48.76;101152.66;5138900;27;20009;-37
2022/10/14 01:25:30;;;;;;;;;;;;;;;20.59;48.95;101148.78;5138454;27;20424;-38
2022/10/14 01:30:41;;;;;;;;;;;;;;;20.59;48.64;101136.88;5165179;27;19934;-34
2022/10/14 01:33:08;;;;;;;;;;;;;;;20.59;48.51;101139.63;5153506;27;20386;-35
2022/10/14 01:35:40;;;;;;;;;;;;;;;20.59;48.75;101129.41;5156659;27;20026;-35
2022/10/14 01:38:07;;;;;;;;;;;;;;;20.58;48.78;101124.97;5155713;27;20014;-35
2022/10/14 01:40:34;;;;;;;;;;;;;;;20.59;48.60;101125.81;5151330;27;20031;-35
2022/10/14 01:43:00;;;;;;;;;;;;;;;20.59;48.73;101112.78;5158972;27;20255;-35
2022/10/14 01:45:26;;;;;;;;;;;;;;;20.58;48.90;101111.16;5151701;27;19927;-35
2022/10/14 01:47:51;;;;;;;;;;;;;;;20.59;48.60;101114.75;5153727;27;19924;-35
2022/10/14 01:50:18;;;;;;;;;;;;;;;20.59;48.65;101106.44;5152331;27;19938;-35
2022/10/14 01:52:46;;;;;;;;;;;;;;;20.59;48.84;101109.22;5156822;27;19966;-35
2022/10/14 01:55:13;;;;;;;;;;;;;;;20.58;48.59;101105.63;5130802;27;19951;-37
2022/10/14 01:57:38;;;;;;;;;;;;;;;20.58;48.62;101110.31;5151815;27;19962;-37
2022/10/14 02:00:04;;;;;;;;;;;;;;;20.58;48.62;101102.84;5130737;27;20006;-38
2022/10/14 02:02:30;;;;;;;;;;;;;;;20.59;48.65;101104.50;5150927;27;19934;-37
2022/10/14 02:04:55;;;;;;;;;;;;;;;20.58;48.81;101105.63;5147273;27;19924;-37
2022/10/14 02:07:29;;;;;;;;;;;;;;;20.57;48.69;101098.44;5146976;27;20290;-37
2022/10/14 02:10:00;;;;;;;;;;;;;;;20.58;48.78;101096.50;5149147;27;20006;-38
2022/10/14 02:12:46;;;;;;;;;;;;;;;20.59;48.60;101100.91;5150402;27;19939;-37
2022/10/14 02:15:18;;;;;;;;;;;;;;;20.59;48.82;101098.13;5135662;27;20008;-37
2022/10/14 02:17:48;;;;;;;;;;;;;;;20.58;48.76;101093.72;5133514;27;20010;-37
2022/10/14 02:20:22;;;;;;;;;;;;;;;20.58;48.82;101090.97;5132275;27;20398;-37
2022/10/14 02:22:50;;;;;;;;;;;;;;;20.58;48.74;101091.78;5128836;27;20447;-38
2022/10/14 02:25:17;;;;;;;;;;;;;;;20.57;48.67;101092.91;5138953;27;20391;-38
2022/10/14 02:27:43;;;;;;;;;;;;;;;20.58;48.85;101091.78;5136700;27;19978;-38
2022/10/14 02:30:09;;;;;;;;;;;;;;;20.58;48.82;101088.19;5134642;27;19923;-37
2022/10/14 02:32:35;;;;;;;;;;;;;;;20.57;48.58;101078.25;5148610;27;20327;-37
2022/10/14 02:35:00;;;;;;;;;;;;;;;20.59;48.78;101087.06;5145698;27;20394;-37
2022/10/14 02:37:26;;;;;;;;;;;;;;;20.58;48.78;101082.66;5153046;27;19930;-38
2022/10/14 02:39:57;;;;;;;;;;;;;;;20.58;48.82;101079.88;5149142;27;19929;-37
2022/10/14 02:42:23;;;;;;;;;;;;;;;20.57;48.65;101076.28;5116626;27;20446;-38
2022/10/14 02:44:51;;;;;;;;;;;;;;;20.58;48.74;101066.06;5132465;27;20367;-38
2022/10/14 02:47:17;;;;;;;;;;;;;;;20.58;48.65;101066.06;5114034;28;20793;-38
2022/10/14 02:49:42;;;;;;;;;;;;;;;20.58;48.73;101058.56;5135641;27;20390;-38
2022/10/14 02:52:08;;;;;;;;;;;;;;;20.58;48.69;101057.75;5132715;27;20345;-37
2022/10/14 02:54:33;;;;;;;;;;;;;;;20.57;48.58;101054.16;5136930;27;19935;-37
2022/10/14 02:56:59;;;;;;;;;;;;;;;20.58;48.78;101055.81;5137475;27;19931;-38
2022/10/14 02:59:24;;;;;;;;;;;;;;;20.58;48.84;101055.00;5133629;27;19923;-37
2022/10/14 03:01:50;;;;;;;;;;;;;;;20.58;48.83;101055.00;5135684;27;19930;-38
2022/10/14 03:04:16;;;;;;;;;;;;;;;20.57;48.69;101054.16;5138823;27;20366;-38
2022/10/14 03:06:41;;;;;;;;;;;;;;;20.57;48.79;101043.09;5133503;27;20340;-37
2022/10/14 03:09:07;;;;;;;;;;;;;;;20.58;48.67;101049.44;5131196;27;19934;-37
2022/10/14 03:11:32;;;;;;;;;;;;;;;20.57;48.88;101047.81;5135833;27;19938;-37
2022/10/14 03:13:58;;;;;;;;;;;;;;;20.58;48.77;101052.22;5136306;27;20409;-37
2022/10/14 03:16:23;;;;;;;;;;;;;;;20.58;48.66;101044.75;5132663;27;19930;-37
2022/10/14 03:18:49;;;;;;;;;;;;;;;20.59;48.77;101040.03;5136705;27;19924;-37
2022/10/14 03:21:14;;;;;;;;;;;;;;;20.58;48.66;101033.69;5133763;27;20371;-37
2022/10/14 03:23:40;;;;;;;;;;;;;;;20.58;48.80;101032.84;5139090;27;19927;-37
2022/10/14 03:26:05;;;;;;;;;;;;;;;20.58;48.73;101030.91;5139505;27;19943;-38
2022/10/14 03:28:35;;;;;;;;;;;;;;;20.57;48.65;101032.03;5137077;27;19931;-37
2022/10/14 03:31:01;;;;;;;;;;;;;;;20.57;48.67;101032.03;5138668;27;20355;-37
2022/10/14 03:33:27;;;;;;;;;;;;;;;20.58;48.88;101032.84;5137405;27;19927;-37
2022/10/14 03:35:58;;;;;;;;;;;;;;;20.59;48.84;101028.97;5136252;27;19984;-37
2022/10/14 03:38:23;;;;;;;;;;;;;;;20.59;48.74;101037.25;5134069;27;20395;-37
2022/10/14 03:40:49;;;;;;;;;;;;;;;20.58;48.56;101030.91;5134769;27;20101;-38
2022/10/14 03:43:15;;;;;;;;;;;;;;;20.58;48.65;101019.03;5136477;27;19930;-37
2022/10/14 03:45:40;;;;;;;;;;;;;;;20.58;48.78;101024.56;5133081;27;20359;-37
2022/10/14 03:48:06;;;;;;;;;;;;;;;20.58;48.79;101027.31;5136553;27;19939;-38
2022/10/14 03:50:31;;;;;;;;;;;;;;;20.57;48.74;101026.50;5140021;27;19935;-38
2022/10/14 03:52:57;;;;;;;;;;;;;;;20.58;48.87;101035.63;5133423;27;20291;-37
2022/10/14 03:55:23;;;;;;;;;;;;;;;20.58;48.59;101024.56;5134156;27;19934;-37
2022/10/14 03:57:48;;;;;;;;;;;;;;;20.58;48.65;101021.78;5136685;27;20148;-37
2022/10/14 04:00:14;;;;;;;;;;;;;;;20.59;48.73;101026.19;5137437;27;19927;-37
2022/10/14 04:02:39;;;;;;;;;;;;;;;20.57;48.68;101025.69;5137413;27;19924;-37
2022/10/14 04:05:05;;;;;;;;;;;;;;;20.57;48.77;101020.97;5138691;27;19974;-37
2022/10/14 04:07:31;;;;;;;;;;;;;;;20.58;48.79;101022.59;5139866;27;19923;-37
2022/10/14 04:09:56;;;;;;;;;;;;;;;20.58;48.90;101024.56;5135331;27;19928;-37
2022/10/14 04:12:22;;;;;;;;;;;;;;;20.57;48.67;101034.78;5133000;27;19934;-37
2022/10/14 04:14:48;;;;;;;;;;;;;;;20.57;48.85;101032.03;5139116;27;19972;-37
2022/10/14 04:17:14;;;;;;;;;;;;;;;20.58;48.83;101027.31;5138000;27;19928;-38
2022/10/14 04:19:39;;;;;;;;;;;;;;;20.58;48.77;101019.03;5135834;27;20295;-37
2022/10/14 04:22:05;;;;;;;;;;;;;;;20.58;48.85;101019.03;5118687;27;19924;-37
2022/10/14 04:24:30;;;;;;;;;;;;;;;20.57;48.88;101015.44;5137393;27;19930;-37
2022/10/14 04:26:56;;;;;;;;;;;;;;;20.57;48.79;101017.38;5132398;27;19923;-37
2022/10/14 04:29:22;;;;;;;;;;;;;;;20.58;48.88;101019.03;5145065;27;19923;-37
2022/10/14 04:31:47;;;;;;;;;;;;;;;20.57;48.84;101018.19;5140656;27;19927;-37
2022/10/14 04:34:13;;;;;;;;;;;;;;;20.57;48.70;101018.19;5133767;27;19943;-38
2022/10/14 04:36:38;;;;;;;;;;;;;;;20.58;48.73;101010.72;5132289;27;19927;-37
2022/10/14 04:39:04;;;;;;;;;;;;;;;20.57;48.73;101018.19;5134055;27;19931;-37
2022/10/14 04:41:30;;;;;;;;;;;;;;;20.58;48.85;101016.25;5132561;27;20039;-37
2022/10/14 04:43:55;;;;;;;;;;;;;;;20.58;48.74;101013.47;5133977;27;20276;-37
2022/10/14 04:46:21;;;;;;;;;;;;;;;20.57;48.91;101006.31;5132959;27;19923;-38
2022/10/14 04:48:47;;;;;;;;;;;;;;;20.57;48.69;101003.53;5132989;27;19924;-37
2022/10/14 04:51:12;;;;;;;;;;;;;;;20.56;48.71;101002.72;5131281;27;20371;-37
2022/10/14 04:53:38;;;;;;;;;;;;;;;20.57;48.68;100998.00;5113985;27;20410;-37
2022/10/14 04:56:04;;;;;;;;;;;;;;;20.58;48.84;101000.47;5130523;27;19976;-38
2022/10/14 04:58:30;;;;;;;;;;;;;;;20.57;48.77;100995.25;5136658;27;19969;-37
2022/10/14 05:00:55;;;;;;;;;;;;;;;20.57;48.87;100990.53;5132805;27;19930;-37
2022/10/14 05:03:21;;;;;;;;;;;;;;;20.57;48.71;100986.94;5119822;27;19923;-37
2022/10/14 05:05:46;;;;;;;;;;;;;;;20.57;48.70;100993.28;5115126;27;20441;-37
2022/10/14 05:08:12;;;;;;;;;;;;;;;20.57;48.65;100981.41;5119442;27;19931;-37
2022/10/14 05:10:37;;;;;;;;;;;;;;;20.57;48.85;100979.47;5134695;27;19927;-37
2022/10/14 05:13:03;;;;;;;;;;;;;;;20.57;48.79;100976.69;5134285;27;19928;-37
2022/10/14 05:15:30;;;;;;;;;;;;;;;20.57;48.66;100973.94;5133021;27;19923;-37
2022/10/14 05:17:55;;;;;;;;;;;;;;;20.56;48.72;100969.50;5130705;27;20010;-37
2022/10/14 05:20:21;;;;;;;;;;;;;;;20.57;48.77;100970.34;5136463;27;19946;-37
2022/10/14 05:22:46;;;;;;;;;;;;;;;20.57;48.68;100956.50;5134301;27;19931;-37
2022/10/14 05:25:12;;;;;;;;;;;;;;;20.57;48.70;100970.34;5135898;27;19934;-37
2022/10/14 05:27:38;;;;;;;;;;;;;;;20.57;48.79;100964.81;5137508;27;19927;-37
2022/10/14 05:30:03;;;;;;;;;;;;;;;20.57;48.69;100964.81;5137276;27;19928;-38
2022/10/14 05:32:29;;;;;;;;;;;;;;;20.56;48.78;100961.22;5121187;27;20294;-37
2022/10/14 05:34:54;;;;;;;;;;;;;;;20.57;48.82;100971.16;5113601;27;19967;-37
2022/10/14 05:37:20;;;;;;;;;;;;;;;20.57;48.77;100970.34;5137365;27;19923;-37
2022/10/14 05:39:45;;;;;;;;;;;;;;;20.57;48.86;100964.81;5135063;27;19954;-37
2022/10/14 05:42:11;;;;;;;;;;;;;;;20.57;48.67;100964.81;5139825;27;19930;-37
2022/10/14 05:44:36;;;;;;;;;;;;;;;20.56;48.88;100966.75;5133330;27;19938;-38
2022/10/14 05:47:02;;;;;;;;;;;;;;;20.56;49.01;100958.44;5135079;27;19931;-37
2022/10/14 05:49:28;;;;;;;;;;;;;;;20.56;48.78;100955.69;5133231;27;19934;-38
2022/10/14 05:51:53;;;;;;;;;;;;;;;20.57;48.75;100956.50;5133198;27;20630;-38
2022/10/14 05:54:19;;;;;;;;;;;;;;;20.57;48.82;100948.19;5132477;27;19923;-37
2022/10/14 05:56:44;;;;;;;;;;;;;;;20.57;48.74;100951.78;5133691;27;19923;-37
2022/10/14 05:59:10;;;;;;;;;;;;;;;20.57;48.85;100946.25;5132392;27;19923;-38
2022/10/14 06:01:37;;;;;;;;;;;;;;;20.57;48.67;100939.91;5134225;27;20122;-37
2022/10/14 06:04:02;;;;;;;;;;;;;;;20.56;48.73;100938.25;5136860;27;19978;-37
2022/10/14 06:06:28;;;;;;;;;;;;;;;20.56;48.68;100941.03;5112235;28;20010;-37
2022/10/14 06:08:54;;;;;;;;;;;;;;;20.56;48.73;100941.03;5131831;27;19980;-37
2022/10/14 06:11:20;;;;;;;;;;;;;;;20.56;48.78;100941.84;5133778;27;19965;-37
2022/10/14 06:13:46;;;;;;;;;;;;;;;20.56;48.51;100941.84;5136953;27;19927;-38
2022/10/14 06:16:11;;;;;;;;;;;;;;;20.56;48.74;100941.84;5134895;27;19931;-38
2022/10/14 06:18:37;;;;;;;;;;;;;;;20.56;48.75;100933.53;5136007;27;19939;-38
2022/10/14 06:21:03;;;;;;;;;;;;;;;20.56;48.91;100941.84;5114932;27;19934;-38
2022/10/14 06:23:28;;;;;;;;;;;;;;;20.56;48.83;100936.31;5116513;27;19923;-37
2022/10/14 06:25:54;;;;;;;;;;;;;;;20.56;48.92;100941.03;5143112;27;19931;-37
2022/10/14 06:28:19;;;;;;;;;;;;;;;20.55;48.66;100934.63;5120075;27;19924;-37
2022/10/14 06:30:49;;;;;;;;;;;;;;;20.56;48.77;100939.09;5141804;27;19923;-37
2022/10/14 06:33:14;;;;;;;;;;;;;;;20.56;48.65;100936.31;5141266;27;19965;-38
2022/10/14 06:35:40;;;;;;;;;;;;;;;20.56;48.82;100933.53;5137158;27;19923;-37
2022/10/14 06:38:06;;;;;;;;;;;;;;;20.55;48.76;100937.41;5136880;27;20016;-38
2022/10/14 06:40:31;;;;;;;;;;;;;;;20.56;48.89;100930.78;5135800;27;20287;-37
2022/10/14 06:42:57;;;;;;;;;;;;;;;20.55;48.84;100931.88;5136404;27;19931;-37
2022/10/14 06:45:23;;;;;;;;;;;;;;;20.57;48.50;100931.59;5133217;27;19978;-38
2022/10/14 06:47:48;;;;;;;;;;;;;;;20.55;48.86;100931.88;5132634;27;19931;-38
2022/10/14 06:50:14;;;;;;;;;;;;;;;20.55;48.80;100929.09;5134392;27;19951;-38
2022/10/14 06:52:39;;;;;;;;;;;;;;;20.56;48.72;100932.72;5137776;27;19934;-37
2022/10/14 06:55:05;;;;;;;;;;;;;;;20.56;48.96;100929.97;5136189;27;19931;-37
2022/10/14 06:57:30;;;;;;;;;;;;;;;20.55;48.67;100931.88;5139733;27;20075;-37
2022/10/14 06:59:56;;;;;;;;;;;;;;;20.54;48.89;100919.97;5136433;27;19930;-37
2022/10/14 07:02:22;;;;;;;;;;;;;;;20.54;48.81;100919.16;5135637;27;19924;-37
2022/10/14 07:04:48;;;;;;;;;;;;;;;20.56;48.79;100916.13;5135529;27;19931;-37
2022/10/14 07:07:13;;;;;;;;;;;;;;;20.54;48.82;100910.84;5140220;27;19927;-38
2022/10/14 07:09:39;;;;;;;;;;;;;;;20.54;48.88;100910.84;5140571;27;19943;-38
2022/10/14 07:12:05;;;;;;;;;;;;;;;20.56;48.76;100916.13;5133181;27;20369;-37
2022/10/14 07:14:30;;;;;;;;;;;;;;;20.56;48.72;100916.13;5135850;27;19931;-38
2022/10/14 07:16:56;;;;;;;;;;;;;;;20.55;48.89;100912.50;5139209;27;19923;-38
2022/10/14 07:19:21;;;;;;;;;;;;;;;20.54;48.96;100919.16;5137930;27;20306;-37
2022/10/14 07:21:47;;;;;;;;;;;;;;;20.55;48.83;100912.50;5116832;27;20049;-37
2022/10/14 07:24:12;;;;;;;;;;;;;;;20.55;48.69;100906.97;5138808;27;19931;-37
2022/10/14 07:26:38;;;;;;;;;;;;;;;20.57;48.69;100917.78;5133855;27;19923;-37
2022/10/14 07:29:04;;;;;;;;;;;;;;;20.54;48.95;100910.84;5141122;27;19984;-37
2022/10/14 07:31:29;;;;;;;;;;;;;;;20.55;48.90;100915.28;5139044;27;19923;-37
2022/10/14 07:33:55;;;;;;;;;;;;;;;20.56;48.93;100905.06;5134825;27;20302;-37
2022/10/14 07:36:20;;;;;;;;;;;;;;;20.55;48.73;100904.22;5132722;27;19924;-37
2022/10/14 07:38:48;;;;;;;;;;;;;;;20.54;48.86;100903.38;5132655;27;19927;-38
2022/10/14 07:41:16;;;;;;;;;;;;;;;20.54;48.74;100908.09;5116417;27;20272;-38
2022/10/14 07:43:42;;;;;;;;;;;;;;;20.56;48.93;100916.13;5115777;27;19978;-37
2022/10/14 07:46:07;;;;;;;;;;;;;;;20.53;48.88;100910.03;5133483;27;19971;-38
2022/10/14 07:48:33;;;;;;;;;;;;;;;20.56;49.01;100914.19;5136529;27;19930;-37
2022/10/14 07:51:19;;;;;;;;;;;;;;;20.55;48.78;100909.75;5105513;27;19923;-37
2022/10/14 07:53:44;;;;;;;;;;;;;;;20.55;48.77;100918.03;5133619;27;19963;-37
2022/10/14 07:56:10;;;;;;;;;;;;;;;20.55;48.94;100923.56;5134260;27;19930;-37
2022/10/14 07:58:35;;;;;;;;;;;;;;;20.54;48.74;100921.94;5135890;27;19923;-37
2022/10/14 08:01:05;;;;;;;;;;;;;;;20.54;48.92;100914.44;5135201;27;20026;-37
2022/10/14 08:03:30;;;;;;;;;;;;;;;20.55;48.81;100912.50;5135482;27;19950;-37
2022/10/14 08:05:58;;;;;;;;;;;;;;;20.54;48.76;100913.63;5132027;27;19931;-37
2022/10/14 08:08:23;;;;;;;;;;;;;;;20.54;48.74;100913.63;5114202;27;19971;-37
2022/10/14 08:10:49;;;;;;;;;;;;;;;20.53;48.90;100910.03;5134594;27;19931;-37
2022/10/14 08:13:14;;;;;;;;;;;;;;;20.53;48.85;100901.75;5135183;27;19931;-37
2022/10/14 08:15:41;;;;;;;;;;;;;;;20.54;48.89;100899.78;5133515;27;19931;-37
2022/10/14 08:18:07;;;;;;;;;;;;;;;20.54;48.87;100894.25;5115073;28;19981;-37
2022/10/14 08:20:32;;;;;;;;;;;;;;;20.53;48.79;100887.09;5114933;27;20344;-37
2022/10/14 08:22:58;;;;;;;;;;;;;;;20.55;48.83;100890.38;5122755;27;19976;-37
2022/10/14 08:25:24;;;;;;;;;;;;;;;20.54;48.79;100885.97;5122576;27;19931;-37
2022/10/14 08:27:50;;;;;;;;;;;;;;;20.52;48.90;100883.50;5134624;27;19930;-37
2022/10/14 08:30:15;;;;;;;;;;;;;;;20.53;48.77;100876.84;5113762;27;19929;-37
2022/10/14 08:32:41;;;;;;;;;;;;;;;20.54;48.89;100874.91;5135306;27;19976;-38
2022/10/14 08:35:07;;;;;;;;;;;;;;;20.53;48.93;100865.78;5138137;27;19923;-37
2022/10/14 08:37:32;;;;;;;;;;;;;;;20.53;48.94;100863.00;5137712;27;19927;-37
2022/10/14 08:39:58;;;;;;;;;;;;;;;20.53;48.88;100865.78;5132680;27;19932;-37
2022/10/14 08:42:36;;;;;;;;;;;;;;;20.53;48.78;100863.00;5134809;27;19934;-38
2022/10/14 08:45:10;;;;;;;;;;;;;;;20.53;48.77;100854.72;5112734;27;19931;-37
2022/10/14 08:47:37;;;;;;;;;;;;;;;20.53;48.89;100857.47;5114364;27;19970;-38
2022/10/14 08:50:23;;;;;;;;;;;;;;;20.53;48.82;100857.47;5134280;27;19962;-37
2022/10/14 08:52:51;;;;;;;;;;;;;;;20.53;49.00;100851.13;5120745;27;19973;-37
2022/10/14 08:55:21;;;;;;;;;;;;;;;20.53;48.75;100859.41;5112809;28;19985;-38
2022/10/14 08:57:50;;;;;;;;;;;;;;;20.53;48.81;100856.66;5133618;27;20345;-38
2022/10/14 09:00:16;;;;;;;;;;;;;;;20.53;48.72;100853.88;5133962;27;19969;-37
2022/10/14 09:02:43;;;;;;;;;;;;;;;20.53;48.72;100848.34;5133786;27;20332;-37
2022/10/14 09:05:12;;;;;;;;;;;;;;;20.53;48.63;100846.41;5130230;27;19962;-37
2022/10/14 09:07:38;;;;;;;;;;;;;;;20.53;48.95;100846.41;5132576;27;21064;-37
2022/10/14 09:10:06;;;;;;;;;;;;;;;20.53;48.64;100834.53;5138376;27;19927;-37
2022/10/14 09:12:33;;;;;;;;;;;;;;;20.53;48.87;100835.34;5118271;27;19955;-37
2022/10/14 09:15:05;;;;;;;;;;;;;;;20.53;48.80;100838.09;5116190;27;20022;-38
2022/10/14 09:17:31;;;;;;;;;;;;;;;20.53;48.95;100838.09;5133029;27;19989;-37
2022/10/14 09:20:09;;;;;;;;;;;;;;;20.53;49.12;100840.88;5132313;27;20021;-37
2022/10/14 09:22:34;;;;;;;;;;;;;;;20.53;48.80;100837.28;5117788;27;19996;-37
2022/10/14 09:25:00;;;;;;;;;;;;;;;20.52;48.88;100833.69;5133898;27;20298;-37
2022/10/14 09:27:25;;;;;;;;;;;;;;;20.54;48.91;100825.09;5132200;27;19923;-38
2022/10/14 09:29:53;;;;;;;;;;;;;;;20.53;48.81;100829.81;5142413;27;20359;-37
2022/10/14 09:32:23;;;;;;;;;;;;;;;20.53;48.76;100832.56;5112865;27;19971;-37
2022/10/14 09:34:49;;;;;;;;;;;;;;;20.53;48.78;100829.00;5132443;27;20391;-37
2022/10/14 09:37:20;;;;;;;;;;;;;;;20.53;49.05;100827.03;5129920;27;19924;-37
2022/10/14 09:39:46;;;;;;;;;;;;;;;20.53;48.79;100829.81;5117530;27;20389;-37
2022/10/14 09:42:14;;;;;;;;;;;;;;;20.52;48.84;100825.41;5138385;27;19962;-37
2022/10/14 09:44:39;;;;;;;;;;;;;;;20.53;48.97;100829.81;5133135;27;20436;-37
2022/10/14 09:47:05;;;;;;;;;;;;;;;20.53;48.91;100824.28;5132473;27;19923;-37
2022/10/14 09:49:38;;;;;;;;;;;;;;;20.52;48.94;100819.88;5122326;27;19930;-37
2022/10/14 09:52:04;;;;;;;;;;;;;;;20.53;49.03;100815.97;5137845;27;20018;-37
2022/10/14 09:54:29;;;;;;;;;;;;;;;20.53;48.90;100815.97;5135898;27;20444;-38
2022/10/14 09:57:14;;;;;;;;;;;;;;;20.53;48.89;100820.69;5135803;27;19943;-37
2022/10/14 09:59:49;;;;;;;;;;;;;;;20.52;49.00;100822.63;5119322;27;19923;-37
2022/10/14 10:02:19;;;;;;;;;;;;;;;20.53;48.78;100820.69;5117311;28;19927;-37
2022/10/14 10:04:46;;;;;;;;;;;;;;;20.52;48.88;100822.63;5134730;27;20436;-37
2022/10/14 10:07:22;;;;;;;;;;;;;;;20.52;48.94;100819.88;5139930;27;20010;-37
2022/10/14 10:09:52;;;;;;;;;;;;;;;20.52;48.83;100811.56;5119896;27;20047;-37
2022/10/14 10:12:21;;;;;;;;;;;;;;;20.53;48.84;100812.38;5121362;27;19971;-37
2022/10/14 10:14:54;;;;;;;;;;;;;;;20.52;48.98;100810.75;5116603;27;20026;-37
2022/10/14 10:17:19;;;;;;;;;;;;;;;20.53;48.86;100809.63;5122664;27;19924;-38
2022/10/14 10:19:47;;;;;;;;;;;;;;;20.53;48.80;100801.31;5141720;27;20204;-38
2022/10/14 10:22:15;;;;;;;;;;;;;;;20.52;48.80;100796.91;5138347;27;19930;-38
2022/10/14 10:30:00;;;;;;;;;;;;;;;20.51;48.81;100796.09;5136469;22;19924;-40
2022/10/14 10:32:46;;;;;;;;;;;;;;;20.53;49.00;100795.78;5066060;28;19952;-40
2022/10/14 10:35:28;;;;;;;;;;;;;;;20.52;48.80;100792.19;5066751;28;20031;-41
2022/10/14 10:37:59;;;;;;;;;;;;;;;20.53;48.88;100793.03;5063315;28;20015;-41
2022/10/14 10:40:28;;;;;;;;;;;;;;;20.52;49.05;100800.50;5062475;28;19960;-41
2022/10/14 10:43:15;;;;;;;;;;;;;;;20.53;48.97;100787.50;5066499;28;20478;-41
2022/10/14 10:46:00;;;;;;;;;;;;;;;20.53;48.94;100787.50;5062860;28;20397;-41
2022/10/14 10:48:31;;;;;;;;;;;;;;;20.52;48.98;100789.44;5064101;28;20011;-41
2022/10/14 10:50:59;;;;;;;;;;;;;;;20.52;48.99;100777.56;5067415;28;20011;-41
2022/10/14 10:53:45;;;;;;;;;;;;;;;20.52;48.89;100781.13;5063816;28;20007;-41
2022/10/14 10:56:32;;;;;;;;;;;;;;;20.53;49.03;100774.47;5065164;28;20356;-41
2022/10/14 10:59:17;;;;;;;;;;;;;;;20.52;48.83;100772.84;5065628;28;20559;-41
2022/10/14 11:01:54;;;;;;;;;;;;;;;20.53;49.04;100768.13;5063176;28;19986;-41
2022/10/14 11:04:25;;;;;;;;;;;;;;;20.52;49.01;100764.53;5068378;28;19974;-41
2022/10/14 11:12:37;;;;;;;;;;;;;;;20.52;49.07;100761.78;5060148;28;20363;-41
2022/10/14 11:15:07;;;;;;;;;;;;;;;20.53;49.00;100749.56;5065842;28;20309;-41
2022/10/14 11:17:52;;;;;;;;;;;;;;;20.53;48.86;100748.75;5068963;28;19928;-41
2022/10/14 11:20:22;;;;;;;;;;;;;;;20.52;49.00;100759.00;5068202;28;19933;-41
2022/10/14 11:22:54;;;;;;;;;;;;;;;20.52;49.11;100742.41;5064914;28;19932;-41
2022/10/14 11:25:39;;;;;;;;;;;;;;;20.52;49.03;100747.94;5068832;28;20011;-43
2022/10/14 11:28:10;;;;;;;;;;;;;;;20.52;49.13;100744.34;5059484;28;19955;-41
2022/10/14 11:33:22;;;;;;;;;;;;;;;20.52;48.97;100736.88;5175838;27;20376;-38
2022/10/14 11:35:52;;;;;;;;;;;;;;;20.53;48.98;100737.69;5151469;27;20037;-39
2022/10/14 11:38:22;;;;;;;;;;;;;;;20.52;49.01;100736.06;5134902;27;19966;-38
2022/10/14 11:40:51;;;;;;;;;;;;;;;20.52;49.15;100739.63;5152415;27;20002;-38
2022/10/14 11:43:23;;;;;;;;;;;;;;;20.53;48.71;100732.16;5154228;27;19977;-39
2022/10/14 11:45:56;;;;;;;;;;;;;;;20.52;49.01;100725.81;5149543;27;19978;-39
2022/10/14 11:48:24;;;;;;;;;;;;;;;20.52;48.99;100719.47;5152123;27;20014;-39
2022/10/14 11:50:52;;;;;;;;;;;;;;;20.52;49.06;100719.47;5156339;27;19962;-39
2022/10/14 11:53:19;;;;;;;;;;;;;;;20.52;48.97;100723.03;5131675;27;19999;-39
2022/10/14 11:55:47;;;;;;;;;;;;;;;20.52;48.87;100714.75;5149949;27;20386;-38
2022/10/14 11:58:13;;;;;;;;;;;;;;;20.52;49.06;100711.97;5150638;27;20436;-39
2022/10/14 12:00:54;;;;;;;;;;;;;;;20.52;49.04;100703.69;5134076;27;20014;-39
2022/10/14 12:03:39;;;;;;;;;;;;;;;20.52;49.14;100706.44;5160330;27;20426;-38
2022/10/14 12:06:06;;;;;;;;;;;;;;;20.52;48.97;100717.50;5158610;27;20394;-38
2022/10/14 12:08:33;;;;;;;;;;;;;;;20.53;48.97;100710.03;5154393;27;20366;-39
2022/10/14 12:11:06;;;;;;;;;;;;;;;20.52;49.05;100713.91;5149436;27;19930;-39
2022/10/14 12:13:34;;;;;;;;;;;;;;;20.52;49.09;100709.22;5134977;27;20405;-39
2022/10/14 12:16:00;;;;;;;;;;;;;;;20.52;49.15;100703.69;5134444;27;20006;-38
2022/10/14 12:18:26;;;;;;;;;;;;;;;20.52;49.04;100700.91;5151445;27;19923;-39
2022/10/14 12:20:55;;;;;;;;;;;;;;;20.52;48.89;100698.16;5154263;27;19937;-38
2022/10/14 12:23:26;;;;;;;;;;;;;;;20.52;49.11;100698.16;5153113;27;20430;-38
2022/10/14 12:25:54;;;;;;;;;;;;;;;20.52;49.10;100689.03;5151567;27;20018;-38
2022/10/14 12:28:20;;;;;;;;;;;;;;;20.52;48.91;100689.03;5137154;27;19978;-39
2022/10/14 12:30:46;;;;;;;;;;;;;;;20.53;49.08;100688.72;5156172;27;19924;-39
2022/10/14 12:33:12;;;;;;;;;;;;;;;20.52;48.97;100676.00;5152865;27;19954;-39
2022/10/14 12:35:58;;;;;;;;;;;;;;;20.52;48.92;100672.44;5152540;27;19974;-38
2022/10/14 12:38:24;;;;;;;;;;;;;;;20.52;48.94;100670.47;5133606;27;19981;-38
2022/10/14 12:40:50;;;;;;;;;;;;;;;20.53;49.06;100666.59;5148564;27;19958;-38
2022/10/14 12:43:17;;;;;;;;;;;;;;;20.52;49.04;100664.94;5146890;27;19924;-38
2022/10/14 12:45:46;;;;;;;;;;;;;;;20.52;49.05;100658.59;5116629;27;19966;-38
2022/10/14 12:48:14;;;;;;;;;;;;;;;20.53;49.16;100665.75;5138317;27;20547;-39
2022/10/14 12:50:40;;;;;;;;;;;;;;;20.52;49.16;100659.41;5135447;27;19974;-38
2022/10/14 12:53:07;;;;;;;;;;;;;;;20.52;49.03;100656.66;5117812;28;19935;-39
2022/10/14 12:55:35;;;;;;;;;;;;;;;20.52;49.06;100656.66;5115935;27;20053;-39